Time;durP1;ratioP1;P1;durP2;ratioP2;P2;SDS_P1;SDS_P2;PMS_P1;PMS_P2;Temp;Humidity;BMP_temperature;BMP_pressure;BME280_temperature;BME280_humidity;BME280_pressure;Samples;Min_cycle;Max_cycle;Signal;HPM_P1;HPM_P2
2021/01/30 00:00:25;;;;;;;0.93;0.80;;;20.30;21.60;;;;;;5036701;28;20485;-51
2021/01/30 00:02:50;;;;;;;0.80;0.80;;;20.20;21.60;;;;;;5035349;28;20179;-50
2021/01/30 00:05:16;;;;;;;1.10;1.00;;;20.30;21.60;;;;;;5036584;28;20172;-51
2021/01/30 00:07:45;;;;;;;1.40;0.90;;;20.30;21.60;;;;;;5036425;28;20488;-55
2021/01/30 00:10:12;;;;;;;1.00;0.80;;;20.20;21.50;;;;;;5018697;28;20215;-51
2021/01/30 00:12:38;;;;;;;1.00;0.70;;;20.30;21.10;;;;;;5038145;28;20626;-50
2021/01/30 00:15:04;;;;;;;1.07;0.97;;;20.20;21.50;;;;;;5056652;28;20160;-50
2021/01/30 00:17:30;;;;;;;1.30;1.00;;;20.30;21.60;;;;;;5056267;28;20611;-52
2021/01/30 00:19:55;;;;;;;0.80;0.80;;;20.20;21.70;;;;;;5038706;28;20165;-51
2021/01/30 00:22:21;;;;;;;1.27;0.70;;;20.20;21.50;;;;;;5055659;28;20475;-51
2021/01/30 00:24:49;;;;;;;1.10;0.97;;;20.30;21.60;;;;;;5054782;28;20278;-51
2021/01/30 00:27:20;;;;;;;1.17;1.05;;;20.30;21.60;;;;;;5055637;28;20224;-50
2021/01/30 00:29:47;;;;;;;0.90;0.80;;;20.30;21.60;;;;;;5056021;28;20179;-51
2021/01/30 00:32:16;;;;;;;0.90;0.80;;;20.30;21.60;;;;;;5055967;28;20148;-51
2021/01/30 00:34:45;;;;;;;0.88;0.88;;;20.20;21.50;;;;;;5055857;28;20656;-50
2021/01/30 00:37:15;;;;;;;1.10;0.95;;;20.20;21.50;;;;;;5055492;28;20229;-51
2021/01/30 00:39:41;;;;;;;0.90;0.80;;;20.20;21.50;;;;;;5055839;28;20166;-50
2021/01/30 00:42:08;;;;;;;0.60;0.60;;;20.20;21.50;;;;;;5055524;28;20658;-50
2021/01/30 00:44:35;;;;;;;1.30;0.90;;;20.30;21.60;;;;;;5055809;28;20166;-51
2021/01/30 00:47:00;;;;;;;1.88;0.70;;;20.20;21.50;;;;;;5055671;28;20167;-50
2021/01/30 00:49:27;;;;;;;0.70;0.67;;;20.20;21.50;;;;;;5055523;28;20217;-51
2021/01/30 00:51:52;;;;;;;1.38;1.20;;;20.20;21.50;;;;;;5055656;28;20179;-51
2021/01/30 00:54:19;;;;;;;1.10;1.00;;;20.20;21.50;;;;;;5037162;28;20244;-51
2021/01/30 00:56:49;;;;;;;1.15;0.93;;;20.20;21.50;;;;;;5054251;28;20202;-50
2021/01/30 00:59:14;;;;;;;0.90;0.80;;;20.20;21.50;;;;;;5055371;28;20166;-51
2021/01/30 01:01:40;;;;;;;0.73;0.70;;;20.20;21.50;;;;;;5054504;28;20163;-51
2021/01/30 01:04:06;;;;;;;1.20;1.10;;;20.20;21.80;;;;;;5037482;28;20621;-51
2021/01/30 01:06:33;;;;;;;0.95;0.85;;;20.20;21.50;;;;;;5055282;28;20690;-51
2021/01/30 01:09:01;;;;;;;1.27;0.93;;;20.20;21.50;;;;;;5054563;28;20202;-51
2021/01/30 01:11:27;;;;;;;1.00;0.90;;;20.20;21.50;;;;;;5055176;28;20158;-51
2021/01/30 01:13:52;;;;;;;0.88;0.80;;;20.20;21.50;;;;;;5054942;28;20210;-51
2021/01/30 01:16:19;;;;;;;1.07;0.87;;;20.20;21.50;;;;;;5055243;28;20177;-50
2021/01/30 01:18:46;;;;;;;1.63;0.90;;;20.20;21.50;;;;;;5054891;28;20155;-51
2021/01/30 01:21:14;;;;;;;1.42;0.75;;;20.20;21.50;;;;;;5055403;28;20217;-51
2021/01/30 01:23:44;;;;;;;0.93;0.80;;;20.20;21.50;;;;;;5053137;28;20606;-50
2021/01/30 01:26:16;;;;;;;1.17;0.75;;;20.20;21.60;;;;;;5054751;28;20167;-51
2021/01/30 01:28:41;;;;;;;0.98;0.85;;;20.20;21.50;;;;;;5054812;28;20155;-51
2021/01/30 01:31:07;;;;;;;0.90;0.60;;;20.20;21.50;;;;;;5053278;28;20221;-51
2021/01/30 01:33:34;;;;;;;1.40;0.90;;;20.20;21.50;;;;;;5070406;28;20167;-50
2021/01/30 01:36:00;;;;;;;0.90;0.90;;;20.20;21.60;;;;;;5054623;28;20190;-51
2021/01/30 01:38:26;;;;;;;1.10;0.90;;;20.20;21.60;;;;;;5036491;28;20568;-51
2021/01/30 01:40:52;;;;;;;0.85;0.60;;;20.20;21.50;;;;;;5054370;28;20167;-51
2021/01/30 01:43:24;;;;;;;0.90;0.90;;;20.20;21.60;;;;;;5054595;28;20163;-50
2021/01/30 01:46:11;;;;;;;0.70;0.70;;;20.20;21.50;;;;;;5054612;28;20167;-50
2021/01/30 01:49:02;;;;;;;1.10;0.88;;;20.20;21.60;;;;;;5054459;28;20679;-51
2021/01/30 01:51:34;;;;;;;1.00;0.90;;;20.20;21.60;;;;;;5054471;28;20246;-50
2021/01/30 01:54:04;;;;;;;1.17;0.80;;;20.20;21.60;;;;;;5053844;28;20155;-51
2021/01/30 01:56:34;;;;;;;0.88;0.82;;;20.20;21.60;;;;;;5069822;28;20170;-51
2021/01/30 01:59:08;;;;;;;0.93;0.77;;;20.20;21.60;;;;;;5054189;28;20159;-50
2021/01/30 02:01:35;;;;;;;0.90;0.80;;;20.20;21.60;;;;;;5054337;28;20166;-51
2021/01/30 02:04:04;;;;;;;0.88;0.80;;;20.20;22.20;;;;;;5054031;28;20160;-51
2021/01/30 02:06:30;;;;;;;0.80;0.80;;;20.20;21.60;;;;;;5054075;28;20166;-51
2021/01/30 02:08:56;;;;;;;1.30;1.00;;;20.20;21.60;;;;;;5053512;28;20167;-51
2021/01/30 02:11:21;;;;;;;0.70;0.70;;;20.20;21.60;;;;;;5054178;28;20159;-51
2021/01/30 02:13:54;;;;;;;1.30;0.80;;;20.20;21.60;;;;;;5053071;28;20953;-51
2021/01/30 02:16:25;;;;;;;0.95;0.80;;;20.20;21.60;;;;;;5053337;28;20147;-50
2021/01/30 02:19:30;;;;;;;1.17;0.70;;;20.20;21.60;;;;;;5053136;28;20238;-51
2021/01/30 02:22:36;;;;;;;1.08;0.90;;;20.20;21.60;;;;;;5053168;28;20197;-50
2021/01/30 02:25:37;;;;;;;1.25;1.15;;;20.20;21.60;;;;;;5053089;28;20622;-51
2021/01/30 02:28:26;;;;;;;0.70;0.70;;;20.20;21.60;;;;;;5020439;28;20194;-51
2021/01/30 02:31:11;;;;;;;0.98;0.88;;;20.20;21.60;;;;;;5053377;28;20183;-51
2021/01/30 02:33:58;;;;;;;1.20;1.08;;;20.20;21.60;;;;;;5053038;28;20144;-51
2021/01/30 02:36:44;;;;;;;1.40;1.30;;;20.20;21.60;;;;;;5053017;28;20164;-50
2021/01/30 02:39:21;;;;;;;0.80;0.77;;;20.10;21.60;;;;;;5052308;28;20155;-51
2021/01/30 02:42:16;;;;;;;0.70;0.70;;;20.20;21.60;;;;;;5068322;28;20173;-51
2021/01/30 02:44:50;;;;;;;0.90;0.70;;;20.10;21.60;;;;;;5052837;28;20260;-51
2021/01/30 02:47:18;;;;;;;1.10;0.90;;;20.10;21.60;;;;;;5053037;28;20143;-50
2021/01/30 02:49:48;;;;;;;0.98;0.88;;;20.20;21.60;;;;;;5052704;28;20198;-51
2021/01/30 02:52:18;;;;;;;1.48;1.35;;;20.10;21.60;;;;;;5052164;28;20242;-51
2021/01/30 02:54:45;;;;;;;1.17;0.70;;;20.10;21.60;;;;;;5035019;28;20301;-50
2021/01/30 02:57:14;;;;;;;0.80;0.80;;;20.10;21.60;;;;;;5052561;28;20167;-50
2021/01/30 02:59:47;;;;;;;0.90;0.60;;;20.10;21.60;;;;;;5052726;28;20238;-51
2021/01/30 03:02:14;;;;;;;1.23;0.73;;;20.10;21.60;;;;;;5052453;28;20169;-50
2021/01/30 03:04:40;;;;;;;0.95;0.90;;;20.10;21.60;;;;;;5052660;28;20187;-51
2021/01/30 03:07:43;;;;;;;1.20;1.00;;;20.10;21.60;;;;;;5052777;28;20179;-52
2021/01/30 03:10:24;;;;;;;1.77;1.13;;;20.10;21.60;;;;;;5052414;28;20564;-51
2021/01/30 03:12:52;;;;;;;1.43;1.17;;;20.10;21.60;;;;;;5026969;28;728265;-51
2021/01/30 03:15:22;;;;;;;1.30;0.75;;;20.20;21.60;;;;;;5053257;28;20645;-50
2021/01/30 03:17:50;;;;;;;1.15;0.80;;;20.10;21.10;;;;;;5053220;28;20186;-51
2021/01/30 03:20:17;;;;;;;1.08;0.77;;;20.10;21.60;;;;;;5053447;28;20159;-51
2021/01/30 03:22:43;;;;;;;1.13;1.02;;;20.10;21.60;;;;;;5052739;28;20614;-51
2021/01/30 03:25:16;;;;;;;1.33;1.23;;;20.10;21.60;;;;;;5055251;28;20167;-51
2021/01/30 03:27:41;;;;;;;1.00;0.75;;;20.10;21.60;;;;;;5039275;28;20167;-50
2021/01/30 03:30:10;;;;;;;1.73;0.87;;;20.10;21.60;;;;;;5057106;28;20549;-51
2021/01/30 03:32:37;;;;;;;1.08;0.60;;;17.30;19.70;;;;;;5056982;28;20159;-50
2021/01/30 03:35:05;;;;;;;0.90;0.73;;;20.10;21.60;;;;;;5039438;28;20217;-51
2021/01/30 03:37:31;;;;;;;0.60;0.52;;;20.10;21.60;;;;;;5056390;28;20673;-50
2021/01/30 03:39:57;;;;;;;1.13;0.75;;;20.10;21.60;;;;;;5057012;28;20159;-50
2021/01/30 03:42:23;;;;;;;0.80;0.80;;;20.10;21.60;;;;;;5056868;28;20673;-51
2021/01/30 03:44:49;;;;;;;1.27;0.90;;;20.10;21.60;;;;;;5039395;28;20555;-51
2021/01/30 03:47:14;;;;;;;0.80;0.80;;;20.10;21.60;;;;;;5056607;28;20595;-50
2021/01/30 03:49:40;;;;;;;0.80;0.70;;;20.10;21.60;;;;;;5056848;28;20459;-50
2021/01/30 03:52:05;;;;;;;1.10;0.63;;;20.10;21.60;;;;;;5038803;28;20174;-50
2021/01/30 03:54:31;;;;;;;0.80;0.80;;;20.10;21.60;;;;;;5056272;28;20160;-50
2021/01/30 03:56:57;;;;;;;0.70;0.70;;;20.10;21.60;;;;;;5056729;28;20170;-51
2021/01/30 03:59:23;;;;;;;0.67;0.67;;;20.10;21.70;;;;;;5056698;28;20627;-51
2021/01/30 04:01:48;;;;;;;0.70;0.60;;;20.10;21.60;;;;;;5056512;28;20610;-52
2021/01/30 04:04:15;;;;;;;2.17;1.10;;;20.10;21.60;;;;;;5056445;28;20163;-51
2021/01/30 04:06:49;;;;;;;0.98;0.98;;;20.10;21.60;;;;;;5056267;28;20246;-51
2021/01/30 04:09:17;;;;;;;0.90;0.70;;;20.10;21.60;;;;;;5055963;28;20154;-51
2021/01/30 04:11:43;;;;;;;1.52;0.80;;;20.10;21.60;;;;;;5056459;28;20187;-50
2021/01/30 04:14:09;;;;;;;1.00;0.80;;;20.10;21.60;;;;;;5056188;28;20225;-51
2021/01/30 04:16:35;;;;;;;0.90;0.90;;;20.10;21.60;;;;;;5056328;28;20402;-51
2021/01/30 04:19:01;;;;;;;1.10;0.90;;;20.10;21.60;;;;;;5038573;28;20285;-51
2021/01/30 04:21:27;;;;;;;1.10;0.88;;;20.00;21.60;;;;;;5056195;28;20653;-51
2021/01/30 04:23:52;;;;;;;1.00;0.90;;;20.10;21.60;;;;;;5055822;28;20167;-50
2021/01/30 04:26:19;;;;;;;1.07;0.70;;;20.10;21.60;;;;;;5056182;28;20163;-51
2021/01/30 04:28:47;;;;;;;0.80;0.80;;;20.10;21.60;;;;;;5056104;28;20209;-51
2021/01/30 04:31:13;;;;;;;0.95;0.73;;;20.10;21.60;;;;;;5056162;28;20269;-51
2021/01/30 04:33:39;;;;;;;0.73;0.70;;;20.10;21.60;;;;;;5054543;28;20265;-51
2021/01/30 04:36:08;;;;;;;1.17;0.77;;;20.10;21.60;;;;;;5055781;28;20402;-51
2021/01/30 04:38:34;;;;;;;0.68;0.63;;;20.10;21.60;;;;;;5055556;28;20159;-50
2021/01/30 04:41:18;;;;;;;0.60;0.57;;;20.10;21.60;;;;;;5021450;28;20167;-51
2021/01/30 04:44:14;;;;;;;0.80;0.70;;;20.00;21.60;;;;;;5054405;28;20192;-51
2021/01/30 04:46:56;;;;;;;0.75;0.70;;;20.00;21.60;;;;;;5055711;28;20610;-50
2021/01/30 04:49:56;;;;;;;0.80;0.80;;;20.00;21.60;;;;;;5055470;28;20159;-51
2021/01/30 04:52:35;;;;;;;0.70;0.65;;;20.00;21.60;;;;;;5054313;28;20190;-51
2021/01/30 04:55:19;;;;;;;1.02;0.80;;;20.00;21.60;;;;;;5055615;28;20147;-51
2021/01/30 04:58:02;;;;;;;0.90;0.60;;;20.00;21.60;;;;;;5055405;28;20196;-51
2021/01/30 05:00:31;;;;;;;1.35;1.17;;;20.10;21.70;;;;;;5055397;28;20159;-50
2021/01/30 05:03:15;;;;;;;1.00;0.75;;;20.00;21.70;;;;;;5055188;28;20163;-50
2021/01/30 05:05:45;;;;;;;0.80;0.63;;;20.00;21.70;;;;;;5055356;28;20197;-51
2021/01/30 05:08:11;;;;;;;1.05;0.70;;;20.10;21.70;;;;;;5054813;28;20155;-51
2021/01/30 05:10:49;;;;;;;1.07;0.77;;;20.00;21.70;;;;;;5055126;28;20187;-50
2021/01/30 05:13:25;;;;;;;1.00;0.90;;;20.00;21.70;;;;;;5055098;28;20218;-51
2021/01/30 05:15:52;;;;;;;0.80;0.60;;;20.00;21.70;;;;;;5055258;28;20151;-51
2021/01/30 05:18:27;;;;;;;0.65;0.65;;;20.00;21.70;;;;;;5055063;28;20155;-52
2021/01/30 05:20:56;;;;;;;1.05;0.80;;;20.00;21.70;;;;;;5054987;28;20197;-51
2021/01/30 05:23:24;;;;;;;0.70;0.70;;;20.00;21.70;;;;;;5054519;28;20164;-51
2021/01/30 05:26:03;;;;;;;0.70;0.68;;;20.00;21.70;;;;;;5054971;28;20159;-50
2021/01/30 05:28:29;;;;;;;0.63;0.55;;;20.00;21.70;;;;;;5054699;28;20151;-51
2021/01/30 05:31:03;;;;;;;0.60;0.53;;;20.00;21.70;;;;;;5054798;28;20191;-51
2021/01/30 05:33:36;;;;;;;1.08;0.98;;;20.00;21.70;;;;;;5054683;28;20152;-51
2021/01/30 05:36:14;;;;;;;0.80;0.60;;;20.00;21.70;;;;;;5054859;28;20162;-51
2021/01/30 05:39:27;;;;;;;0.80;0.80;;;20.10;21.80;;;;;;5054264;28;20159;-51
2021/01/30 05:42:11;;;;;;;0.70;0.60;;;20.00;21.70;;;;;;5054686;28;20599;-50
2021/01/30 05:44:49;;;;;;;1.70;0.88;;;20.00;21.70;;;;;;5054504;28;20159;-51
2021/01/30 05:47:20;;;;;;;0.80;0.77;;;20.00;21.70;;;;;;5053720;28;20603;-51
2021/01/30 05:50:18;;;;;;;0.98;0.88;;;20.00;21.80;;;;;;5054371;28;20190;-52
2021/01/30 05:52:43;;;;;;;0.70;0.60;;;20.00;21.80;;;;;;5042977;28;20178;-50
2021/01/30 05:55:31;;;;;;;0.83;0.77;;;20.00;21.80;;;;;;5036541;28;20171;-51
2021/01/30 05:58:02;;;;;;;0.90;0.77;;;20.00;21.40;;;;;;5036159;28;20207;-51
2021/01/30 06:00:28;;;;;;;0.88;0.75;;;20.00;21.80;;;;;;5054266;28;20229;-50
2021/01/30 06:03:15;;;;;;;0.80;0.80;;;20.00;21.80;;;;;;5053914;28;20515;-51
2021/01/30 06:05:49;;;;;;;0.80;0.80;;;20.00;21.90;;;;;;5054144;28;20408;-51
2021/01/30 06:08:30;;;;;;;0.90;0.80;;;20.00;21.90;;;;;;5053917;28;20190;-51
2021/01/30 06:11:08;;;;;;;1.20;0.70;;;20.00;21.90;;;;;;5053926;28;20271;-51
2021/01/30 06:13:34;;;;;;;0.80;0.73;;;20.00;21.90;;;;;;5053965;28;20260;-50
2021/01/30 06:16:02;;;;;;;0.90;0.80;;;20.00;21.90;;;;;;5053805;28;20155;-51
2021/01/30 06:18:38;;;;;;;0.88;0.60;;;20.00;21.90;;;;;;5053884;28;20151;-50
2021/01/30 06:21:21;;;;;;;0.70;0.70;;;20.00;21.90;;;;;;5053849;28;20163;-50
2021/01/30 06:24:01;;;;;;;1.50;0.93;;;20.00;21.90;;;;;;5053696;28;20213;-51
2021/01/30 06:26:27;;;;;;;0.77;0.65;;;20.00;21.90;;;;;;5053658;28;20645;-51
2021/01/30 06:29:06;;;;;;;0.57;0.53;;;20.00;21.90;;;;;;5053640;28;20175;-51
2021/01/30 06:31:40;;;;;;;0.70;0.70;;;20.00;21.90;;;;;;5053625;28;20373;-51
2021/01/30 06:34:34;;;;;;;0.80;0.80;;;20.00;21.90;;;;;;5053608;28;20498;-51
2021/01/30 06:37:05;;;;;;;0.68;0.50;;;20.00;21.90;;;;;;5053495;28;20163;-50
2021/01/30 06:39:32;;;;;;;1.20;0.85;;;20.00;21.90;;;;;;5035184;28;20286;-50
2021/01/30 06:42:16;;;;;;;0.70;0.50;;;20.00;21.90;;;;;;5053648;28;20665;-51
2021/01/30 06:44:42;;;;;;;1.08;0.90;;;20.00;21.90;;;;;;5053409;28;20171;-50
2021/01/30 06:47:16;;;;;;;1.00;0.80;;;20.00;22.00;;;;;;5053338;28;20191;-50
2021/01/30 06:49:44;;;;;;;0.77;0.60;;;20.00;21.90;;;;;;5053433;28;20189;-51
2021/01/30 06:52:23;;;;;;;0.90;0.60;;;20.00;21.90;;;;;;5051929;28;20160;-51
2021/01/30 06:55:04;;;;;;;1.08;0.98;;;20.00;21.90;;;;;;5053358;28;20162;-51
2021/01/30 06:57:33;;;;;;;1.45;0.98;;;20.00;21.90;;;;;;5053417;28;20625;-51
2021/01/30 07:00:14;;;;;;;0.80;0.52;;;20.00;21.90;;;;;;5052074;28;20170;-51
2021/01/30 07:02:46;;;;;;;0.60;0.52;;;20.00;21.90;;;;;;5053024;28;20602;-51
2021/01/30 07:05:17;;;;;;;0.77;0.57;;;20.00;21.90;;;;;;5053134;28;20155;-50
2021/01/30 07:07:49;;;;;;;0.70;0.70;;;20.00;21.90;;;;;;5053071;28;20163;-52
2021/01/30 07:10:39;;;;;;;1.20;0.70;;;20.10;21.90;;;;;;5053594;28;20666;-50
2021/01/30 07:13:29;;;;;;;0.60;0.50;;;20.10;21.90;;;;;;5052965;28;20206;-51
2021/01/30 07:16:06;;;;;;;0.60;0.55;;;20.10;21.90;;;;;;5053249;28;20155;-51
2021/01/30 07:18:44;;;;;;;1.00;0.73;;;20.10;21.90;;;;;;5053222;28;20179;-51
2021/01/30 07:21:26;;;;;;;0.77;0.70;;;20.10;21.90;;;;;;5053291;28;20194;-50
2021/01/30 07:23:58;;;;;;;0.60;0.60;;;20.10;21.90;;;;;;5052666;28;20157;-50
2021/01/30 07:26:35;;;;;;;0.80;0.75;;;20.10;21.90;;;;;;5053160;28;20222;-51
2021/01/30 07:29:08;;;;;;;1.00;0.90;;;20.10;21.80;;;;;;5052866;28;20179;-51
2021/01/30 07:31:44;;;;;;;0.70;0.70;;;20.10;21.80;;;;;;5053167;28;20177;-51
2021/01/30 07:34:12;;;;;;;0.60;0.50;;;20.10;21.80;;;;;;5053058;28;20159;-51
2021/01/30 07:36:43;;;;;;;1.20;0.82;;;20.10;21.80;;;;;;5053003;28;20567;-51
2021/01/30 07:39:47;;;;;;;0.55;0.52;;;20.20;21.80;;;;;;5052445;28;20160;-51
2021/01/30 07:42:40;;;;;;;0.77;0.75;;;20.20;21.80;;;;;;5053092;28;20154;-52
2021/01/30 07:45:14;;;;;;;0.60;0.55;;;20.20;21.80;;;;;;5053154;28;20163;-51
2021/01/30 07:47:47;;;;;;;0.80;0.60;;;20.20;21.70;;;;;;5053433;28;20183;-51
2021/01/30 07:50:25;;;;;;;1.02;0.70;;;20.20;21.70;;;;;;5052221;28;20237;-51
2021/01/30 07:53:07;;;;;;;0.75;0.60;;;20.20;21.70;;;;;;5051329;28;20187;-51
2021/01/30 07:55:34;;;;;;;1.58;0.63;;;20.20;21.60;;;;;;5053133;28;20144;-50
2021/01/30 07:58:51;;;;;;;1.23;0.70;;;20.20;21.60;;;;;;5052704;28;20148;-50
2021/01/30 08:01:38;;;;;;;0.82;0.70;;;20.30;21.70;;;;;;5027101;28;20211;-51
2021/01/30 08:04:39;;;;;;;0.82;0.70;;;20.30;21.60;;;;;;5052827;28;20151;-51
2021/01/30 08:07:45;;;;;;;0.85;0.60;;;20.30;21.60;;;;;;5052993;28;20155;-51
2021/01/30 08:10:20;;;;;;;0.90;0.60;;;20.30;21.60;;;;;;5052850;28;20221;-51
2021/01/30 08:13:15;;;;;;;0.63;0.63;;;20.30;21.60;;;;;;5056023;28;20241;-50
2021/01/30 08:15:54;;;;;;;0.70;0.65;;;20.30;21.60;;;;;;5045668;28;20213;-51
2021/01/30 08:18:37;;;;;;;0.63;0.52;;;20.30;21.50;;;;;;5056148;28;20155;-51
2021/01/30 08:21:17;;;;;;;0.60;0.60;;;20.30;21.50;;;;;;5054868;28;20190;-50
2021/01/30 08:23:52;;;;;;;1.35;0.75;;;20.40;21.60;;;;;;5055610;28;20159;-50
2021/01/30 08:26:23;;;;;;;0.77;0.63;;;20.40;21.50;;;;;;5071564;28;20540;-51
2021/01/30 08:29:10;;;;;;;0.93;0.52;;;20.40;21.50;;;;;;5055974;28;20167;-51
2021/01/30 08:31:54;;;;;;;0.70;0.55;;;20.40;21.50;;;;;;5055941;28;20236;-51
2021/01/30 08:34:19;;;;;;;0.85;0.65;;;20.40;21.50;;;;;;5056192;28;20257;-51
2021/01/30 08:36:54;;;;;;;0.83;0.73;;;20.40;21.50;;;;;;5055838;28;20155;-50
2021/01/30 08:39:33;;;;;;;0.93;0.77;;;20.40;21.50;;;;;;5055325;28;20161;-50
2021/01/30 08:42:05;;;;;;;1.42;0.70;;;20.40;21.50;;;;;;5055548;28;20175;-50
2021/01/30 08:44:52;;;;;;;1.10;0.80;;;20.40;21.50;;;;;;5055696;28;20276;-50
2021/01/30 08:47:29;;;;;;;1.05;0.90;;;20.40;21.50;;;;;;5055773;28;20269;-50
2021/01/30 08:50:30;;;;;;;0.90;0.73;;;20.40;21.40;;;;;;5055561;28;20304;-50
2021/01/30 08:53:22;;;;;;;0.80;0.80;;;20.40;21.40;;;;;;5055095;28;20162;-50
2021/01/30 08:55:51;;;;;;;0.60;0.45;;;20.50;21.50;;;;;;5055462;28;20186;-50
2021/01/30 08:58:35;;;;;;;0.80;0.68;;;20.40;21.40;;;;;;5055508;28;20182;-50
2021/01/30 09:01:27;;;;;;;0.90;0.80;;;20.50;21.50;;;;;;5055581;28;21024;-50
2021/01/30 09:03:59;;;;;;;0.73;0.68;;;20.50;21.50;;;;;;5044685;28;20190;-50
2021/01/30 09:06:39;;;;;;;0.98;0.80;;;20.50;21.40;;;;;;5055306;28;20206;-50
2021/01/30 09:09:23;;;;;;;0.80;0.68;;;20.50;21.40;;;;;;5055137;28;20159;-50
2021/01/30 09:11:53;;;;;;;0.80;0.50;;;20.50;21.40;;;;;;5055458;28;20241;-50
2021/01/30 09:14:18;;;;;;;1.02;0.85;;;20.50;21.40;;;;;;5055106;28;20218;-51
2021/01/30 09:16:55;;;;;;;0.77;0.63;;;20.50;21.30;;;;;;5055216;28;20159;-51
2021/01/30 09:19:26;;;;;;;0.70;0.63;;;20.50;21.30;;;;;;5054910;28;20599;-52
2021/01/30 09:22:22;;;;;;;1.00;0.73;;;20.50;21.30;;;;;;5054270;28;20222;-51
2021/01/30 09:25:06;;;;;;;1.55;0.80;;;20.60;21.30;;;;;;5070427;28;20163;-51
2021/01/30 09:27:35;;;;;;;0.90;0.63;;;20.60;21.30;;;;;;5054909;28;20276;-51
2021/01/30 09:30:31;;;;;;;0.93;0.57;;;20.60;21.30;;;;;;5054718;28;20558;-50
2021/01/30 09:32:58;;;;;;;0.70;0.70;;;20.60;21.20;;;;;;5040600;28;20179;-51
2021/01/30 09:35:32;;;;;;;0.70;0.50;;;20.60;21.20;;;;;;5053493;28;20205;-51
2021/01/30 09:38:15;;;;;;;1.58;0.82;;;20.60;21.10;;;;;;5053975;28;20162;-50
2021/01/30 09:40:41;;;;;;;0.95;0.63;;;20.70;21.20;;;;;;5054873;28;20186;-51
2021/01/30 09:43:08;;;;;;;1.00;0.80;;;20.70;21.10;;;;;;5054389;28;20533;-50
2021/01/30 09:45:36;;;;;;;1.10;0.90;;;20.70;21.00;;;;;;5054580;28;20193;-51
2021/01/30 09:48:10;;;;;;;1.35;0.80;;;20.70;21.00;;;;;;5054374;28;20170;-51
2021/01/30 09:50:41;;;;;;;0.73;0.55;;;20.70;21.00;;;;;;5054425;28;20182;-51
2021/01/30 09:53:13;;;;;;;0.77;0.68;;;20.70;20.90;;;;;;5053914;28;20148;-50
2021/01/30 09:55:40;;;;;;;0.73;0.70;;;20.70;20.80;;;;;;5054625;28;20611;-51
2021/01/30 09:58:20;;;;;;;1.00;0.90;;;20.70;20.70;;;;;;5054251;28;20156;-51
2021/01/30 10:00:47;;;;;;;0.98;0.68;;;20.80;20.80;;;;;;5052367;28;20537;-51
2021/01/30 10:03:21;;;;;;;0.82;0.60;;;20.80;20.80;;;;;;5054089;28;20186;-51
2021/01/30 10:05:48;;;;;;;1.63;0.80;;;20.80;20.80;;;;;;5054361;28;20163;-51
2021/01/30 10:08:29;;;;;;;0.80;0.57;;;20.80;20.90;;;;;;5054275;28;20200;-51
2021/01/30 10:11:08;;;;;;;0.60;0.50;;;20.80;20.80;;;;;;5054154;28;20194;-51
2021/01/30 10:13:36;;;;;;;0.75;0.75;;;20.90;20.90;;;;;;5042952;28;20241;-51
2021/01/30 10:16:07;;;;;;;0.90;0.80;;;20.90;20.90;;;;;;5016381;28;20247;-50
2021/01/30 10:18:37;;;;;;;1.30;0.70;;;20.90;20.90;;;;;;5034138;28;20151;-51
2021/01/30 10:21:03;;;;;;;0.98;0.70;;;20.90;20.90;;;;;;5034156;28;20194;-50
2021/01/30 10:23:48;;;;;;;0.88;0.65;;;20.90;20.90;;;;;;5033433;28;20183;-51
2021/01/30 10:26:26;;;;;;;1.10;0.95;;;20.90;20.90;;;;;;5033890;28;20171;-51
2021/01/30 10:29:03;;;;;;;1.35;0.70;;;20.90;20.90;;;;;;5034054;28;20156;-57
2021/01/30 10:31:40;;;;;;;1.02;0.93;;;21.00;20.90;;;;;;5034386;28;20190;-52
2021/01/30 10:34:18;;;;;;;0.90;0.75;;;21.00;20.90;;;;;;5033717;28;20155;-50
2021/01/30 10:36:52;;;;;;;1.00;0.90;;;21.00;20.90;;;;;;5033594;28;20227;-51
2021/01/30 10:39:20;;;;;;;0.70;0.60;;;21.00;20.90;;;;;;5033133;28;20255;-51
2021/01/30 10:41:46;;;;;;;0.80;0.60;;;21.00;20.90;;;;;;5033612;28;20159;-51
2021/01/30 10:44:23;;;;;;;1.02;0.63;;;21.00;20.90;;;;;;5033333;28;20172;-50
2021/01/30 10:46:55;;;;;;;0.80;0.68;;;21.10;21.00;;;;;;5033642;28;20155;-51
2021/01/30 10:49:26;;;;;;;0.93;0.75;;;21.10;20.50;;;;;;5033209;28;20171;-51
2021/01/30 10:52:11;;;;;;;0.80;0.80;;;21.10;21.00;;;;;;5033474;28;20152;-51
2021/01/30 10:54:41;;;;;;;0.93;0.82;;;21.10;21.00;;;;;;5033919;28;20233;-50
2021/01/30 10:57:28;;;;;;;2.00;1.20;;;21.10;20.50;;;;;;5015556;28;20156;-50
2021/01/30 10:59:55;;;;;;;0.93;0.68;;;21.10;21.00;;;;;;5033497;28;20182;-52
2021/01/30 11:02:27;;;;;;;1.13;0.85;;;21.10;21.00;;;;;;5033273;28;20266;-51
2021/01/30 11:05:19;;;;;;;1.60;0.70;;;21.10;20.90;;;;;;5033637;28;20187;-49
2021/01/30 11:07:52;;;;;;;0.80;0.70;;;21.10;20.80;;;;;;5032566;28;20163;-51
2021/01/30 11:10:39;;;;;;;0.90;0.60;;;21.10;20.80;;;;;;5033220;28;20237;-52
2021/01/30 11:13:19;;;;;;;1.00;0.70;;;21.10;20.30;;;;;;5033185;28;20256;-51
2021/01/30 11:15:46;;;;;;;1.63;1.05;;;21.10;20.80;;;;;;5033441;28;20156;-51
2021/01/30 11:18:30;;;;;;;1.60;0.80;;;21.10;20.70;;;;;;5033247;28;20148;-51
2021/01/30 11:20:57;;;;;;;2.45;0.90;;;21.10;20.70;;;;;;5032867;28;20213;-50
2021/01/30 11:23:49;;;;;;;2.38;1.00;;;21.10;20.70;;;;;;5032747;28;20184;-51
2021/01/30 11:26:33;;;;;;;0.98;0.80;;;21.10;20.70;;;;;;5015467;28;20178;-50
2021/01/30 11:28:59;;;;;;;0.60;0.57;;;21.10;20.70;;;;;;5033122;28;20192;-51
2021/01/30 11:31:26;;;;;;;0.88;0.60;;;21.10;20.70;;;;;;5033303;28;20539;-51
2021/01/30 11:33:56;;;;;;;0.68;0.65;;;21.10;20.70;;;;;;5033036;28;20235;-51
2021/01/30 11:36:22;;;;;;;0.80;0.70;;;21.10;20.70;;;;;;5033120;28;20235;-51
2021/01/30 11:39:04;;;;;;;0.80;0.60;;;21.10;20.70;;;;;;5032831;28;20696;-54
2021/01/30 11:41:30;;;;;;;1.10;0.70;;;21.10;20.70;;;;;;5033317;28;20187;-52
2021/01/30 11:43:55;;;;;;;1.57;0.93;;;21.10;20.70;;;;;;5032899;28;20195;-51
2021/01/30 11:46:21;;;;;;;0.90;0.70;;;21.10;20.70;;;;;;5034892;28;20570;-51
2021/01/30 11:48:47;;;;;;;1.70;0.90;;;21.10;20.70;;;;;;5036334;28;20459;-52
2021/01/30 11:51:24;;;;;;;0.60;0.60;;;21.10;20.70;;;;;;5036410;28;20279;-50
2021/01/30 11:53:50;;;;;;;0.80;0.70;;;21.10;20.70;;;;;;5035862;28;20155;-50
2021/01/30 11:56:17;;;;;;;1.43;0.90;;;21.10;20.70;;;;;;5036679;28;20179;-51
2021/01/30 11:58:46;;;;;;;0.60;0.55;;;21.20;20.70;;;;;;5039908;28;20410;-53
2021/01/30 12:01:14;;;;;;;0.75;0.70;;;21.20;20.70;;;;;;5002543;28;20182;-51
2021/01/30 12:03:40;;;;;;;1.35;0.80;;;21.20;20.70;;;;;;5036485;28;20163;-50
2021/01/30 12:06:06;;;;;;;1.00;0.70;;;21.20;20.70;;;;;;5036456;28;20164;-52
2021/01/30 12:08:32;;;;;;;1.00;0.80;;;21.20;20.70;;;;;;5036026;28;20156;-52
2021/01/30 12:10:58;;;;;;;1.07;0.80;;;21.20;20.70;;;;;;5036367;28;20674;-51
2021/01/30 12:13:24;;;;;;;1.70;0.90;;;21.10;20.70;;;;;;5036270;28;20219;-50
2021/01/30 12:15:50;;;;;;;1.20;0.75;;;21.10;20.70;;;;;;5036557;28;20629;-51
2021/01/30 12:18:18;;;;;;;1.53;1.17;;;21.10;20.70;;;;;;5036194;28;20251;-51
2021/01/30 12:20:45;;;;;;;1.10;0.75;;;21.10;20.80;;;;;;5036251;28;20164;-51
2021/01/30 12:23:20;;;;;;;0.98;0.80;;;21.10;20.80;;;;;;5035647;28;20160;-50
2021/01/30 12:25:46;;;;;;;1.00;0.80;;;21.10;20.90;;;;;;5036338;28;20181;-51
2021/01/30 12:28:29;;;;;;;0.80;0.70;;;21.10;21.00;;;;;;5036263;28;20243;-50
2021/01/30 12:30:55;;;;;;;1.70;0.85;;;21.10;21.00;;;;;;5035904;28;20722;-51
2021/01/30 12:33:21;;;;;;;1.48;1.10;;;21.10;21.00;;;;;;5035937;28;20620;-51
2021/01/30 12:35:47;;;;;;;0.70;0.60;;;21.10;21.00;;;;;;5035791;28;20182;-51
2021/01/30 12:38:17;;;;;;;0.82;0.80;;;21.00;20.90;;;;;;5035478;28;20156;-51
2021/01/30 12:40:46;;;;;;;0.95;0.75;;;21.00;20.90;;;;;;5035949;28;20168;-50
2021/01/30 12:43:18;;;;;;;0.93;0.70;;;21.00;20.90;;;;;;5035681;28;20194;-50
2021/01/30 12:45:44;;;;;;;0.70;0.50;;;21.10;21.00;;;;;;5035810;28;20152;-52
2021/01/30 12:48:11;;;;;;;1.15;0.80;;;21.10;21.00;;;;;;5035768;28;20164;-50
2021/01/30 12:50:37;;;;;;;1.15;0.80;;;21.00;20.90;;;;;;5035758;28;20180;-51
2021/01/30 12:53:04;;;;;;;0.60;0.60;;;21.10;21.00;;;;;;5035078;28;20152;-51
2021/01/30 12:55:29;;;;;;;1.20;0.68;;;21.10;21.00;;;;;;5035628;28;20161;-51
2021/01/30 12:57:55;;;;;;;0.77;0.70;;;21.10;21.00;;;;;;5035219;28;20156;-50
2021/01/30 13:00:24;;;;;;;0.80;0.70;;;21.10;21.00;;;;;;5035236;28;20160;-50
2021/01/30 13:02:50;;;;;;;0.70;0.65;;;21.10;21.00;;;;;;5035139;28;20407;-51
2021/01/30 13:05:16;;;;;;;0.80;0.70;;;21.10;21.00;;;;;;5035381;28;20642;-50
2021/01/30 13:07:42;;;;;;;1.02;0.73;;;21.10;21.00;;;;;;5034971;28;20160;-51
2021/01/30 13:10:12;;;;;;;1.23;0.70;;;21.00;20.90;;;;;;5035185;28;20740;-51
2021/01/30 13:12:38;;;;;;;1.13;0.80;;;21.10;21.00;;;;;;5034989;28;20399;-51
2021/01/30 13:15:05;;;;;;;1.02;0.70;;;21.10;21.00;;;;;;5035335;28;20144;-51
2021/01/30 13:17:31;;;;;;;1.17;0.80;;;21.00;20.90;;;;;;5035091;28;20635;-50
2021/01/30 13:19:57;;;;;;;1.33;1.00;;;21.00;20.90;;;;;;5035044;28;20164;-51